createdAt,value
2018-05-25T00:00:57.434Z,18.64
2018-05-25T00:03:24.951Z,18.56
2018-05-25T00:05:52.485Z,18.57
2018-05-25T00:08:19.982Z,18.61
2018-05-25T00:10:47.511Z,18.53
2018-05-25T00:13:15.128Z,18.57
2018-05-25T00:15:42.671Z,18.56
2018-05-25T00:18:10.238Z,18.42
2018-05-25T00:20:37.764Z,18.30
2018-05-25T00:23:05.314Z,18.24
2018-05-25T00:25:32.834Z,18.20
2018-05-25T00:28:00.352Z,18.16
2018-05-25T00:30:27.898Z,18.09
2018-05-25T00:33:00.504Z,18.04
2018-05-25T00:35:28.076Z,18.03
2018-05-25T00:37:55.593Z,18.09
2018-05-25T00:40:23.072Z,18.04
2018-05-25T00:42:50.587Z,18.08
2018-05-25T00:45:18.107Z,17.97
2018-05-25T00:47:45.599Z,17.91
2018-05-25T00:50:13.073Z,17.82
2018-05-25T00:52:40.635Z,17.76
2018-05-25T00:55:19.979Z,17.70
2018-05-25T00:57:47.532Z,17.68
2018-05-25T01:00:15.060Z,17.62
2018-05-25T01:02:42.653Z,17.59
2018-05-25T01:05:10.223Z,17.64
2018-05-25T01:07:37.802Z,17.56
2018-05-25T01:10:05.297Z,17.51
2018-05-25T01:12:32.790Z,17.44
2018-05-25T01:15:00.316Z,17.35
2018-05-25T01:17:27.862Z,17.30
2018-05-25T01:19:55.426Z,17.21
2018-05-25T01:22:22.932Z,17.15
2018-05-25T01:24:50.503Z,17.15
2018-05-25T01:27:17.992Z,17.09
2018-05-25T01:29:45.494Z,17.05
2018-05-25T01:32:12.985Z,17.00
2018-05-25T01:34:40.483Z,16.98
2018-05-25T01:37:08.087Z,16.99
2018-05-25T01:39:35.623Z,16.99
2018-05-25T01:42:03.143Z,16.91
2018-05-25T01:44:30.609Z,16.95
2018-05-25T01:46:58.098Z,16.98
2018-05-25T01:49:25.608Z,16.94
2018-05-25T01:51:53.707Z,16.92
2018-05-25T01:54:21.184Z,16.82
2018-05-25T01:56:48.777Z,16.83
2018-05-25T01:59:16.305Z,16.76
2018-05-25T02:01:43.863Z,16.81
2018-05-25T02:04:11.340Z,16.74
2018-05-25T02:06:38.932Z,16.65
2018-05-25T02:09:06.444Z,16.66
2018-05-25T02:11:33.995Z,16.70
2018-05-25T02:14:01.519Z,16.54
2018-05-25T02:16:29.018Z,16.53
2018-05-25T02:18:56.547Z,16.51
2018-05-25T02:21:24.043Z,16.44
2018-05-25T02:23:51.566Z,16.44
2018-05-25T02:26:19.111Z,16.43
2018-05-25T02:28:46.666Z,16.35
2018-05-25T02:31:14.188Z,16.32
2018-05-25T02:33:41.714Z,16.26
2018-05-25T02:36:09.312Z,16.19
2018-05-25T02:38:36.895Z,16.16
2018-05-25T02:41:04.382Z,16.08
2018-05-25T02:43:31.946Z,16.09
2018-05-25T02:45:59.467Z,16.05
2018-05-25T02:48:27.187Z,16.04
2018-05-25T02:50:54.676Z,15.96
2018-05-25T02:53:22.194Z,15.93
2018-05-25T02:55:49.684Z,15.91
2018-05-25T02:58:17.210Z,15.85
2018-05-25T03:00:44.755Z,15.78
2018-05-25T03:03:12.338Z,15.75
2018-05-25T03:05:39.804Z,15.71
2018-05-25T03:08:07.326Z,15.66
2018-05-25T03:10:34.899Z,15.60
2018-05-25T03:13:02.523Z,15.59
2018-05-25T03:15:30.018Z,15.59
2018-05-25T03:17:57.529Z,15.61
2018-05-25T03:20:25.035Z,15.64
2018-05-25T03:22:52.503Z,15.58
2018-05-25T03:25:20.006Z,15.59
2018-05-25T03:27:47.538Z,15.62
2018-05-25T03:30:15.032Z,15.61
2018-05-25T03:32:42.530Z,15.57
2018-05-25T03:35:10.004Z,15.52
2018-05-25T03:37:37.491Z,15.51
2018-05-25T03:40:05.005Z,15.48
2018-05-25T03:42:32.510Z,15.48
2018-05-25T03:45:00.018Z,15.44
2018-05-25T03:47:27.535Z,15.39
2018-05-25T03:49:55.051Z,15.43
2018-05-25T03:52:22.593Z,15.50
2018-05-25T03:54:50.247Z,15.44
2018-05-25T03:57:17.812Z,15.46
2018-05-25T03:59:57.053Z,15.49
2018-05-25T04:02:24.541Z,15.51
2018-05-25T04:04:52.089Z,15.54
2018-05-25T04:07:19.657Z,15.55
2018-05-25T04:09:47.240Z,15.56
2018-05-25T04:12:14.782Z,15.56
2018-05-25T04:14:42.448Z,15.60
2018-05-25T04:17:10.027Z,15.68
2018-05-25T04:19:37.563Z,15.73
2018-05-25T04:22:05.091Z,15.79
2018-05-25T04:24:32.573Z,15.88
2018-05-25T04:27:00.112Z,15.94
2018-05-25T04:29:27.589Z,15.95
2018-05-25T04:31:55.123Z,16.03
2018-05-25T04:34:22.681Z,16.17
2018-05-25T04:36:50.165Z,16.25
2018-05-25T04:39:17.886Z,16.34
2018-05-25T04:41:45.387Z,16.43
2018-05-25T04:44:12.929Z,16.49
2018-05-25T04:46:40.493Z,16.61
2018-05-25T04:49:07.994Z,16.74
2018-05-25T04:51:35.555Z,16.80
2018-05-25T04:54:03.074Z,16.91
2018-05-25T04:56:30.715Z,17.06
2018-05-25T04:58:58.277Z,17.05
2018-05-25T05:01:25.835Z,17.14
2018-05-25T05:03:53.363Z,17.13
2018-05-25T05:06:20.992Z,17.26
2018-05-25T05:08:48.791Z,17.30
2018-05-25T05:11:16.468Z,17.39
2018-05-25T05:13:44.352Z,17.44
2018-05-25T05:16:12.014Z,17.53
2018-05-25T05:18:39.995Z,17.58
2018-05-25T05:21:08.148Z,17.65
2018-05-25T05:23:35.630Z,17.68
2018-05-25T05:26:05.615Z,17.76
2018-05-25T05:28:33.139Z,17.94
2018-05-25T05:31:03.125Z,18.01
2018-05-25T05:33:32.047Z,18.11
2018-05-25T05:36:01.173Z,18.27
2018-05-25T05:38:29.771Z,18.34
2018-05-25T05:40:58.063Z,18.46
2018-05-25T05:43:27.812Z,18.95
2018-05-25T05:45:56.743Z,19.70
2018-05-25T05:48:25.141Z,20.65
2018-05-25T05:50:53.064Z,20.99
2018-05-25T05:53:20.671Z,20.96
2018-05-25T05:55:48.316Z,21.09
2018-05-25T05:58:15.880Z,21.42
2018-05-25T06:00:43.353Z,21.58
2018-05-25T06:03:10.860Z,21.29
2018-05-25T06:05:38.386Z,21.02
2018-05-25T06:08:05.890Z,21.47
2018-05-25T06:10:33.444Z,21.58
2018-05-25T06:13:00.934Z,21.85
2018-05-25T06:15:28.465Z,22.19
2018-05-25T06:17:56.023Z,22.07
2018-05-25T06:20:23.570Z,22.19
2018-05-25T06:22:51.076Z,21.45
2018-05-25T06:25:18.612Z,21.67
2018-05-25T06:27:46.162Z,21.62
2018-05-25T06:30:13.738Z,21.49
2018-05-25T06:32:41.257Z,21.28
2018-05-25T06:35:08.774Z,21.53
2018-05-25T06:37:36.468Z,21.46
2018-05-25T06:40:03.986Z,21.62
2018-05-25T06:42:31.566Z,21.62
2018-05-25T06:44:59.076Z,21.65
2018-05-25T06:47:26.571Z,21.37
2018-05-25T06:49:54.116Z,21.84
2018-05-25T06:52:21.669Z,21.39
2018-05-25T06:54:49.254Z,21.35
2018-05-25T06:57:16.778Z,21.24
2018-05-25T06:59:44.319Z,21.77
2018-05-25T07:02:11.866Z,21.87
2018-05-25T07:04:39.377Z,21.79
2018-05-25T07:07:06.888Z,21.74
2018-05-25T07:09:34.439Z,21.75
2018-05-25T07:12:01.959Z,21.88
2018-05-25T07:14:29.521Z,21.75
2018-05-25T07:16:57.046Z,21.48
2018-05-25T07:19:24.629Z,21.70
2018-05-25T07:21:52.159Z,21.92
2018-05-25T07:24:19.708Z,21.83
2018-05-25T07:26:47.210Z,22.27
2018-05-25T07:29:14.712Z,22.18
2018-05-25T07:31:42.252Z,22.35
2018-05-25T07:34:09.774Z,22.59
2018-05-25T07:36:37.286Z,22.76
2018-05-25T07:39:05.655Z,23.07
2018-05-25T07:41:33.216Z,22.75
2018-05-25T07:44:00.721Z,22.66
2018-05-25T07:46:28.261Z,22.69
2018-05-25T07:48:55.771Z,22.72
2018-05-25T07:51:23.287Z,22.44
2018-05-25T07:53:50.796Z,22.71
2018-05-25T07:56:18.299Z,22.86
2018-05-25T07:58:45.894Z,22.95
2018-05-25T08:01:13.481Z,23.17
2018-05-25T08:03:41.000Z,23.29
2018-05-25T08:06:08.498Z,23.52
2018-05-25T08:08:35.988Z,23.24
2018-05-25T08:11:03.505Z,23.53
2018-05-25T08:13:31.005Z,23.31
2018-05-25T08:15:58.516Z,23.19
2018-05-25T08:18:26.808Z,23.20
2018-05-25T08:20:54.351Z,23.43
2018-05-25T08:23:21.888Z,23.50
2018-05-25T08:25:49.422Z,23.30
2018-05-25T08:28:16.977Z,23.48
2018-05-25T08:30:44.482Z,23.62
2018-05-25T08:33:11.956Z,23.73
2018-05-25T08:35:39.435Z,24.12
2018-05-25T08:38:06.951Z,24.08
2018-05-25T08:40:34.599Z,24.01
2018-05-25T08:43:02.076Z,24.21
2018-05-25T08:45:29.610Z,24.42
2018-05-25T08:47:57.100Z,24.57
2018-05-25T08:50:24.618Z,24.38
2018-05-25T08:52:52.102Z,24.21
2018-05-25T08:55:19.673Z,24.35
2018-05-25T08:57:47.160Z,24.63
2018-05-25T09:00:14.671Z,24.38
2018-05-25T09:02:42.223Z,24.36
2018-05-25T09:05:09.709Z,24.33
2018-05-25T09:07:37.263Z,24.75
2018-05-25T09:10:04.810Z,24.64
2018-05-25T09:12:33.193Z,24.13
2018-05-25T09:15:00.759Z,24.50
2018-05-25T09:17:28.293Z,24.38
2018-05-25T09:19:55.804Z,24.70
2018-05-25T09:22:23.323Z,24.78
2018-05-25T09:24:50.844Z,24.65
2018-05-25T09:27:18.476Z,24.65
2018-05-25T09:29:46.088Z,24.74
2018-05-25T09:32:13.744Z,24.74
2018-05-25T09:34:41.260Z,24.85
2018-05-25T09:37:08.771Z,24.66
2018-05-25T09:39:36.364Z,24.78
2018-05-25T09:42:03.879Z,24.80
2018-05-25T09:44:32.260Z,24.74
2018-05-25T09:46:59.747Z,24.98
2018-05-25T09:49:28.392Z,24.67
2018-05-25T09:51:56.039Z,25.00
2018-05-25T09:54:23.585Z,24.92
2018-05-25T09:56:59.948Z,25.03
2018-05-25T09:59:27.522Z,24.84
2018-05-25T10:01:55.058Z,24.80
2018-05-25T10:04:22.558Z,25.08
2018-05-25T10:06:50.124Z,25.03
2018-05-25T10:09:17.604Z,25.30
2018-05-25T10:11:45.221Z,25.27
2018-05-25T10:14:12.713Z,25.13
2018-05-25T10:16:40.228Z,25.12
2018-05-25T10:19:07.751Z,25.19
2018-05-25T10:21:35.263Z,25.32
2018-05-25T10:24:02.787Z,25.46
2018-05-25T10:26:30.317Z,25.34
2018-05-25T10:28:57.891Z,25.25
2018-05-25T10:31:25.434Z,25.35
2018-05-25T10:33:52.932Z,25.33
2018-05-25T10:36:20.697Z,25.37
2018-05-25T10:38:48.279Z,25.23
2018-05-25T10:41:15.965Z,25.28
2018-05-25T10:43:43.471Z,25.29
2018-05-25T10:46:11.016Z,25.16
2018-05-25T10:48:39.024Z,25.30
2018-05-25T10:51:06.576Z,25.22
2018-05-25T10:53:34.066Z,25.25
2018-05-25T10:56:01.752Z,25.14
2018-05-25T10:58:29.285Z,25.42
2018-05-25T11:00:56.872Z,25.62
2018-05-25T11:03:24.363Z,25.60
2018-05-25T11:05:51.863Z,25.16
2018-05-25T11:08:20.323Z,25.32
2018-05-25T11:10:47.852Z,25.49
2018-05-25T11:13:16.026Z,25.37
2018-05-25T11:15:43.566Z,25.73
2018-05-25T11:18:11.538Z,25.50
2018-05-25T11:20:39.074Z,25.27
2018-05-25T11:23:06.573Z,25.64
2018-05-25T11:25:34.064Z,25.79
2018-05-25T11:28:01.589Z,25.81
2018-05-25T11:30:29.114Z,25.60
2018-05-25T11:32:56.669Z,25.76
2018-05-25T11:35:24.182Z,25.67
2018-05-25T11:37:52.219Z,25.71
2018-05-25T11:40:22.394Z,25.69
2018-05-25T11:42:49.979Z,25.84
2018-05-25T11:45:17.484Z,25.84
2018-05-25T11:47:45.035Z,25.80
2018-05-25T11:50:12.578Z,25.56
2018-05-25T11:52:40.061Z,25.67
2018-05-25T11:55:07.594Z,25.64
2018-05-25T11:57:35.303Z,25.77
2018-05-25T12:00:02.807Z,26.03
2018-05-25T12:02:30.313Z,25.91
2018-05-25T12:04:57.921Z,25.84
2018-05-25T12:07:25.489Z,25.79
2018-05-25T12:09:53.144Z,25.85
2018-05-25T12:12:20.658Z,26.01
2018-05-25T12:14:48.261Z,26.12
2018-05-25T12:17:15.783Z,26.09
2018-05-25T12:19:43.288Z,25.97
2018-05-25T12:22:10.940Z,26.02
2018-05-25T12:24:39.144Z,25.91
2018-05-25T12:27:07.259Z,26.18
2018-05-25T12:29:34.827Z,26.08
2018-05-25T12:32:02.473Z,26.03
2018-05-25T12:34:30.045Z,26.05
2018-05-25T12:36:57.713Z,25.94
2018-05-25T12:39:25.372Z,26.24
2018-05-25T12:41:53.022Z,26.34
2018-05-25T12:44:20.598Z,26.50
2018-05-25T12:46:48.170Z,26.65
2018-05-25T12:49:15.854Z,26.40
2018-05-25T12:51:43.388Z,26.46
2018-05-25T12:54:12.264Z,26.50
2018-05-25T12:56:39.882Z,26.61
2018-05-25T12:59:09.316Z,26.15
2018-05-25T13:01:36.993Z,26.39
2018-05-25T13:04:18.879Z,26.63
2018-05-25T13:06:48.994Z,26.70
2018-05-25T13:09:16.629Z,26.55
2018-05-25T13:11:44.124Z,26.52
2018-05-25T13:14:12.547Z,26.59
2018-05-25T13:16:40.182Z,26.57
2018-05-25T13:19:08.145Z,26.67
2018-05-25T13:21:37.007Z,26.69
2018-05-25T13:24:04.548Z,26.81
2018-05-25T13:26:32.423Z,26.98
2018-05-25T13:28:59.999Z,26.92
2018-05-25T13:31:30.851Z,26.94
2018-05-25T13:34:18.374Z,26.87
2018-05-25T13:36:46.169Z,26.86
2018-05-25T13:39:14.576Z,26.95
2018-05-25T13:41:42.459Z,27.06
2018-05-25T13:44:10.048Z,26.88
2018-05-25T13:46:37.673Z,26.82
2018-05-25T13:49:05.242Z,26.88
2018-05-25T13:51:33.600Z,26.85
2018-05-25T13:54:01.280Z,26.90
2018-05-25T13:56:28.756Z,26.90
2018-05-25T13:58:56.296Z,26.86
2018-05-25T14:01:23.815Z,26.83
2018-05-25T14:03:51.458Z,26.77
2018-05-25T14:06:19.907Z,26.90
2018-05-25T14:08:47.413Z,26.92
2018-05-25T14:11:14.927Z,26.78
2018-05-25T14:13:42.520Z,26.80
2018-05-25T14:16:10.172Z,26.87
2018-05-25T14:18:37.814Z,26.85
2018-05-25T14:21:05.581Z,26.78
2018-05-25T14:23:33.179Z,26.83
2018-05-25T14:26:01.805Z,26.77
2018-05-25T14:28:29.373Z,26.89
2018-05-25T14:30:56.926Z,26.83
2018-05-25T14:33:24.691Z,26.84
2018-05-25T14:35:52.257Z,27.01
2018-05-25T14:38:19.915Z,26.86
2018-05-25T14:40:49.536Z,27.00
2018-05-25T14:43:17.180Z,26.89
2018-05-25T14:45:44.739Z,26.83
2018-05-25T14:48:12.320Z,26.85
2018-05-25T14:50:39.928Z,26.85
2018-05-25T14:53:07.492Z,26.86
2018-05-25T14:55:35.059Z,26.92
2018-05-25T14:58:02.659Z,26.87
2018-05-25T15:00:30.194Z,26.92
2018-05-25T15:02:58.574Z,26.85
2018-05-25T15:05:26.073Z,26.90
2018-05-25T15:07:53.578Z,26.97
2018-05-25T15:10:21.325Z,26.85
2018-05-25T15:12:49.063Z,26.86
2018-05-25T15:15:17.246Z,26.94
2018-05-25T15:17:49.451Z,26.93
2018-05-25T15:20:17.186Z,26.86
2018-05-25T15:22:44.711Z,26.95
2018-05-25T15:25:23.236Z,27.05
2018-05-25T15:27:50.928Z,26.83
2018-05-25T15:30:26.414Z,27.01
2018-05-25T15:32:54.368Z,26.92
2018-05-25T15:35:32.455Z,26.90
2018-05-25T15:38:00.109Z,26.88
2018-05-25T15:40:30.361Z,26.93
2018-05-25T15:42:58.079Z,26.99
2018-05-25T15:45:25.606Z,26.99
2018-05-25T15:47:56.415Z,26.69
2018-05-25T15:50:25.793Z,26.70
2018-05-25T15:52:56.893Z,26.56
2018-05-25T15:55:24.507Z,26.64
2018-05-25T15:57:52.029Z,26.68
2018-05-25T16:00:19.594Z,26.52
2018-05-25T16:02:47.124Z,26.53
2018-05-25T16:05:14.634Z,26.47
2018-05-25T16:07:42.140Z,26.45
2018-05-25T16:10:09.687Z,26.47
2018-05-25T16:12:37.219Z,26.54
2018-05-25T16:15:04.762Z,26.52
2018-05-25T16:17:32.297Z,26.55
2018-05-25T16:19:59.817Z,26.49
2018-05-25T16:22:27.346Z,26.57
2018-05-25T16:24:54.866Z,26.61
2018-05-25T16:27:22.374Z,26.71
2018-05-25T16:29:49.923Z,26.73
2018-05-25T16:32:17.437Z,26.74
2018-05-25T16:34:45.815Z,26.67
2018-05-25T16:37:13.321Z,26.61
2018-05-25T16:39:40.863Z,26.63
2018-05-25T16:42:08.426Z,26.62
2018-05-25T16:44:35.907Z,26.56
2018-05-25T16:47:03.579Z,26.48
2018-05-25T16:49:31.112Z,26.50
2018-05-25T16:51:58.624Z,26.37
2018-05-25T16:54:26.113Z,26.33
2018-05-25T16:56:53.675Z,26.26
2018-05-25T16:59:21.276Z,26.28
2018-05-25T17:01:55.857Z,26.26
2018-05-25T17:04:23.493Z,26.26
2018-05-25T17:06:51.068Z,26.24
2018-05-25T17:09:18.818Z,26.27
2018-05-25T17:11:46.522Z,26.34
2018-05-25T17:14:14.150Z,26.33
2018-05-25T17:16:43.766Z,26.29
2018-05-25T17:19:11.247Z,26.35
2018-05-25T17:21:38.924Z,26.30
2018-05-25T17:24:06.620Z,26.34
2018-05-25T17:26:34.148Z,26.29
2018-05-25T17:29:01.787Z,26.30
2018-05-25T17:31:29.437Z,26.26
2018-05-25T17:33:57.081Z,26.02
2018-05-25T17:36:25.164Z,26.07
2018-05-25T17:38:52.901Z,26.06
2018-05-25T17:41:20.726Z,26.06
2018-05-25T17:43:48.639Z,26.03
2018-05-25T17:46:16.136Z,26.00
2018-05-25T17:48:43.735Z,26.01
2018-05-25T17:51:11.325Z,26.01
2018-05-25T17:53:38.888Z,25.96
2018-05-25T17:56:06.545Z,25.90
2018-05-25T17:58:34.093Z,25.86
2018-05-25T18:01:01.758Z,25.91
2018-05-25T18:03:29.301Z,25.86
2018-05-25T18:05:56.923Z,25.76
2018-05-25T18:08:24.721Z,25.77
2018-05-25T18:10:52.283Z,25.82
2018-05-25T18:13:19.831Z,25.82
2018-05-25T18:15:47.372Z,25.73
2018-05-25T18:18:16.203Z,25.77
2018-05-25T18:20:43.742Z,25.64
2018-05-25T18:23:11.237Z,25.64
2018-05-25T18:25:39.174Z,25.60
2018-05-25T18:28:06.727Z,25.58
2018-05-25T18:30:35.118Z,25.51
2018-05-25T18:33:02.602Z,25.41
2018-05-25T18:35:30.129Z,25.37
2018-05-25T18:37:57.660Z,25.34
2018-05-25T18:40:25.323Z,25.32
2018-05-25T18:42:52.847Z,25.28
2018-05-25T18:45:20.361Z,25.21
2018-05-25T18:47:47.853Z,25.22
2018-05-25T18:50:15.375Z,25.12
2018-05-25T18:52:43.744Z,24.99
2018-05-25T18:55:11.234Z,24.78
2018-05-25T18:57:38.758Z,24.68
2018-05-25T19:00:06.288Z,24.53
2018-05-25T19:02:33.795Z,24.41
2018-05-25T19:05:01.353Z,24.39
2018-05-25T19:07:29.045Z,24.10
2018-05-25T19:09:56.651Z,24.04
2018-05-25T19:12:24.565Z,23.87
2018-05-25T19:14:53.225Z,23.73
2018-05-25T19:17:20.838Z,23.68
2018-05-25T19:19:48.397Z,23.58
2018-05-25T19:22:15.884Z,23.48
2018-05-25T19:24:43.438Z,23.38
2018-05-25T19:27:11.004Z,23.31
2018-05-25T19:29:38.493Z,23.22
2018-05-25T19:32:06.104Z,23.18
2018-05-25T19:34:33.600Z,23.06
2018-05-25T19:37:01.143Z,22.93
2018-05-25T19:39:28.660Z,22.86
2018-05-25T19:41:56.197Z,22.80
2018-05-25T19:44:23.713Z,22.68
2018-05-25T19:46:51.612Z,22.60
2018-05-25T19:49:19.237Z,22.56
2018-05-25T19:51:46.707Z,22.49
2018-05-25T19:54:14.334Z,22.46
2018-05-25T19:56:42.211Z,22.35
2018-05-25T19:59:09.762Z,22.33
2018-05-25T20:01:37.402Z,22.23
2018-05-25T20:04:07.396Z,22.11
2018-05-25T20:06:35.342Z,22.03
2018-05-25T20:09:02.856Z,21.95
2018-05-25T20:11:30.645Z,21.93
2018-05-25T20:13:58.312Z,21.86
2018-05-25T20:16:25.868Z,21.75
2018-05-25T20:18:53.535Z,21.75
2018-05-25T20:21:21.284Z,21.60
2018-05-25T20:23:49.632Z,21.55
2018-05-25T20:26:17.581Z,21.41
2018-05-25T20:28:45.262Z,21.36
2018-05-25T20:31:14.693Z,21.31
2018-05-25T20:33:42.645Z,21.25
2018-05-25T20:36:10.163Z,21.20
2018-05-25T20:38:38.172Z,21.04
2018-05-25T20:41:06.189Z,20.98
2018-05-25T20:43:33.794Z,20.92
2018-05-25T20:46:01.412Z,20.88
2018-05-25T20:48:28.934Z,20.79
2018-05-25T20:50:57.310Z,20.72
2018-05-25T20:53:25.647Z,20.67
2018-05-25T20:55:53.486Z,20.64
2018-05-25T20:58:21.003Z,20.58
2018-05-25T21:00:48.488Z,20.53
2018-05-25T21:03:16.406Z,20.52
2018-05-25T21:05:44.620Z,20.37
2018-05-25T21:08:12.205Z,20.28
2018-05-25T21:10:40.612Z,20.30
2018-05-25T21:13:08.692Z,20.30
2018-05-25T21:15:37.028Z,20.26
2018-05-25T21:18:04.626Z,20.13
2018-05-25T21:20:32.295Z,20.05
2018-05-25T21:23:01.176Z,20.08
2018-05-25T21:25:30.881Z,19.94
2018-05-25T21:27:59.194Z,19.93
2018-05-25T21:30:26.720Z,19.79
2018-05-25T21:32:58.497Z,19.81
2018-05-25T21:35:26.041Z,19.79
2018-05-25T21:37:53.608Z,19.62
2018-05-25T21:40:21.103Z,19.57
2018-05-25T21:42:49.132Z,19.51
2018-05-25T21:45:16.809Z,19.46
2018-05-25T21:47:46.019Z,19.39
2018-05-25T21:50:14.003Z,19.33
2018-05-25T21:52:41.572Z,19.28
2018-05-25T21:55:09.059Z,19.25
2018-05-25T21:57:37.395Z,19.22
2018-05-25T22:00:09.839Z,19.18
2018-05-25T22:02:37.321Z,19.14
2018-05-25T22:05:04.859Z,19.14
2018-05-25T22:07:32.370Z,19.10
2018-05-25T22:09:59.840Z,19.04
2018-05-25T22:12:27.323Z,19.04
2018-05-25T22:14:54.862Z,18.97
2018-05-25T22:17:22.551Z,19.05
2018-05-25T22:19:50.092Z,18.99
2018-05-25T22:22:17.635Z,18.97
2018-05-25T22:24:45.185Z,18.97
2018-05-25T22:27:12.739Z,19.12
2018-05-25T22:29:40.255Z,19.04
2018-05-25T22:32:07.789Z,19.00
2018-05-25T22:34:35.338Z,19.03
2018-05-25T22:37:02.891Z,19.06
2018-05-25T22:39:30.635Z,18.94
2018-05-25T22:41:57.689Z,18.88
2018-05-25T22:44:37.026Z,18.87
2018-05-25T22:47:16.506Z,18.93
2018-05-25T22:49:56.036Z,18.84
2018-05-25T22:52:28.589Z,18.80
2018-05-25T22:54:57.827Z,18.94
2018-05-25T22:57:25.438Z,18.90
2018-05-25T22:59:52.899Z,18.80
2018-05-25T23:02:20.480Z,18.77
2018-05-25T23:04:48.216Z,18.77
2018-05-25T23:07:15.783Z,18.54
2018-05-25T23:09:43.414Z,18.53
2018-05-25T23:12:11.827Z,18.64
2018-05-25T23:14:39.383Z,18.57
2018-05-25T23:17:06.972Z,18.49
2018-05-25T23:19:34.710Z,18.52
2018-05-25T23:22:02.359Z,18.52
2018-05-25T23:24:29.895Z,18.56
2018-05-25T23:26:57.420Z,18.55
2018-05-25T23:29:24.979Z,18.58
2018-05-25T23:31:52.581Z,18.65
2018-05-25T23:34:20.127Z,18.64
2018-05-25T23:36:47.916Z,18.67
2018-05-25T23:39:15.486Z,18.63
2018-05-25T23:41:43.965Z,18.65
2018-05-25T23:44:11.719Z,18.66
2018-05-25T23:46:39.278Z,18.63
2018-05-25T23:49:06.812Z,18.65
2018-05-25T23:51:34.309Z,18.58
2018-05-25T23:54:01.887Z,18.56
2018-05-25T23:56:29.387Z,18.48
2018-05-25T23:58:56.957Z,18.45
